sensor_id;sensor_type;location;lat;lon;timestamp;temperature;humidity
4461;DHT22;2243;48.812;9.232;2023-03-01T00:00:17;1.00;99.90
4461;DHT22;2243;48.812;9.232;2023-03-01T00:02:48;1.00;99.90
4461;DHT22;2243;48.812;9.232;2023-03-01T00:05:18;1.00;99.90
4461;DHT22;2243;48.812;9.232;2023-03-01T00:07:53;1.00;99.90
4461;DHT22;2243;48.812;9.232;2023-03-01T00:10:24;0.90;99.90
4461;DHT22;2243;48.812;9.232;2023-03-01T00:12:57;0.80;99.90
4461;DHT22;2243;48.812;9.232;2023-03-01T00:15:28;0.80;99.90
4461;DHT22;2243;48.812;9.232;2023-03-01T00:17:58;0.90;99.90
4461;DHT22;2243;48.812;9.232;2023-03-01T00:20:30;0.80;99.90
4461;DHT22;2243;48.812;9.232;2023-03-01T00:23:01;0.80;99.90
4461;DHT22;2243;48.812;9.232;2023-03-01T00:25:31;0.80;99.90
4461;DHT22;2243;48.812;9.232;2023-03-01T00:28:02;0.70;99.90
4461;DHT22;2243;48.812;9.232;2023-03-01T00:30:33;0.70;99.90
4461;DHT22;2243;48.812;9.232;2023-03-01T00:33:04;0.60;99.90
4461;DHT22;2243;48.812;9.232;2023-03-01T00:35:35;0.60;99.90
4461;DHT22;2243;48.812;9.232;2023-03-01T00:38:07;0.50;99.90
4461;DHT22;2243;48.812;9.232;2023-03-01T00:40:38;0.50;99.90
4461;DHT22;2243;48.812;9.232;2023-03-01T00:43:09;0.50;99.90
4461;DHT22;2243;48.812;9.232;2023-03-01T00:45:40;0.60;99.90
4461;DHT22;2243;48.812;9.232;2023-03-01T00:48:11;0.60;99.90
4461;DHT22;2243;48.812;9.232;2023-03-01T00:50:43;0.50;99.90
4461;DHT22;2243;48.812;9.232;2023-03-01T00:53:14;0.40;99.90
4461;DHT22;2243;48.812;9.232;2023-03-01T00:55:45;0.40;99.90
4461;DHT22;2243;48.812;9.232;2023-03-01T00:58:16;0.40;99.90
4461;DHT22;2243;48.812;9.232;2023-03-01T01:00:47;0.30;99.90
4461;DHT22;2243;48.812;9.232;2023-03-01T01:03:18;0.30;99.90
4461;DHT22;2243;48.812;9.232;2023-03-01T01:05:50;0.20;99.90
4461;DHT22;2243;48.812;9.232;2023-03-01T01:08:24;0.30;99.90
4461;DHT22;2243;48.812;9.232;2023-03-01T01:10:55;0.20;99.90
4461;DHT22;2243;48.812;9.232;2023-03-01T01:13:26;0.10;99.90
4461;DHT22;2243;48.812;9.232;2023-03-01T01:16:01;0.10;99.90
4461;DHT22;2243;48.812;9.232;2023-03-01T01:18:32;0.10;99.90
4461;DHT22;2243;48.812;9.232;2023-03-01T01:21:08;0.10;99.90
4461;DHT22;2243;48.812;9.232;2023-03-01T01:23:43;0.10;99.90
4461;DHT22;2243;48.812;9.232;2023-03-01T01:26:20;0.10;99.90
4461;DHT22;2243;48.812;9.232;2023-03-01T01:28:56;0.00;99.90
4461;DHT22;2243;48.812;9.232;2023-03-01T01:31:28;0.00;99.90
4461;DHT22;2243;48.812;9.232;2023-03-01T01:34:01;0.10;99.90
4461;DHT22;2243;48.812;9.232;2023-03-01T01:36:34;0.10;99.90
4461;DHT22;2243;48.812;9.232;2023-03-01T01:39:05;0.00;99.90
4461;DHT22;2243;48.812;9.232;2023-03-01T01:41:36;0.00;99.90
4461;DHT22;2243;48.812;9.232;2023-03-01T01:44:20;0.10;99.90
4461;DHT22;2243;48.812;9.232;2023-03-01T01:47:18;0.20;99.90
4461;DHT22;2243;48.812;9.232;2023-03-01T01:49:55;0.10;99.90
4461;DHT22;2243;48.812;9.232;2023-03-01T01:52:34;0.10;99.90
4461;DHT22;2243;48.812;9.232;2023-03-01T01:55:14;0.10;99.90
4461;DHT22;2243;48.812;9.232;2023-03-01T01:57:50;0.20;99.90
4461;DHT22;2243;48.812;9.232;2023-03-01T02:00:28;0.20;99.90
4461;DHT22;2243;48.812;9.232;2023-03-01T02:03:03;0.30;99.90
4461;DHT22;2243;48.812;9.232;2023-03-01T02:05:46;0.40;99.90
4461;DHT22;2243;48.812;9.232;2023-03-01T02:08:27;0.30;99.90
4461;DHT22;2243;48.812;9.232;2023-03-01T02:11:01;0.50;99.90
4461;DHT22;2243;48.812;9.232;2023-03-01T02:13:35;0.50;99.90
4461;DHT22;2243;48.812;9.232;2023-03-01T02:16:11;0.50;99.90
4461;DHT22;2243;48.812;9.232;2023-03-01T02:18:44;0.50;99.90
4461;DHT22;2243;48.812;9.232;2023-03-01T02:21:42;0.60;99.90
4461;DHT22;2243;48.812;9.232;2023-03-01T02:24:22;0.70;99.90
4461;DHT22;2243;48.812;9.232;2023-03-01T02:27:13;0.90;99.90
4461;DHT22;2243;48.812;9.232;2023-03-01T02:29:50;0.90;99.90
4461;DHT22;2243;48.812;9.232;2023-03-01T02:32:22;1.00;99.90
4461;DHT22;2243;48.812;9.232;2023-03-01T02:34:56;1.00;99.90
4461;DHT22;2243;48.812;9.232;2023-03-01T02:37:27;1.00;99.90
4461;DHT22;2243;48.812;9.232;2023-03-01T02:40:03;1.10;99.90
4461;DHT22;2243;48.812;9.232;2023-03-01T02:42:54;1.10;99.90
4461;DHT22;2243;48.812;9.232;2023-03-01T02:45:27;1.20;99.90
4461;DHT22;2243;48.812;9.232;2023-03-01T02:47:58;1.30;99.90
4461;DHT22;2243;48.812;9.232;2023-03-01T02:53:16;1.30;99.90
4461;DHT22;2243;48.812;9.232;2023-03-01T02:55:52;1.30;99.90
4461;DHT22;2243;48.812;9.232;2023-03-01T02:58:23;1.40;99.90
4461;DHT22;2243;48.812;9.232;2023-03-01T03:00:54;1.50;99.90
4461;DHT22;2243;48.812;9.232;2023-03-01T03:03:26;1.40;99.90
4461;DHT22;2243;48.812;9.232;2023-03-01T03:05:57;1.50;99.90
4461;DHT22;2243;48.812;9.232;2023-03-01T03:08:28;1.40;99.90
4461;DHT22;2243;48.812;9.232;2023-03-01T03:10:59;1.50;99.90
4461;DHT22;2243;48.812;9.232;2023-03-01T03:13:30;1.50;99.90
4461;DHT22;2243;48.812;9.232;2023-03-01T03:16:02;1.50;99.90
4461;DHT22;2243;48.812;9.232;2023-03-01T03:18:34;1.50;99.90
4461;DHT22;2243;48.812;9.232;2023-03-01T03:21:08;1.40;99.90
4461;DHT22;2243;48.812;9.232;2023-03-01T03:23:43;1.50;99.90
4461;DHT22;2243;48.812;9.232;2023-03-01T03:26:14;1.50;99.90
4461;DHT22;2243;48.812;9.232;2023-03-01T03:28:45;1.50;99.90
4461;DHT22;2243;48.812;9.232;2023-03-01T03:31:17;1.50;99.90
4461;DHT22;2243;48.812;9.232;2023-03-01T03:33:48;1.50;99.90
4461;DHT22;2243;48.812;9.232;2023-03-01T03:36:22;1.50;99.90
4461;DHT22;2243;48.812;9.232;2023-03-01T03:38:54;1.40;99.90
4461;DHT22;2243;48.812;9.232;2023-03-01T03:41:24;1.40;99.90
4461;DHT22;2243;48.812;9.232;2023-03-01T03:43:55;1.30;99.90
4461;DHT22;2243;48.812;9.232;2023-03-01T03:46:26;1.40;99.90
4461;DHT22;2243;48.812;9.232;2023-03-01T03:48:57;1.40;99.90
4461;DHT22;2243;48.812;9.232;2023-03-01T03:51:28;1.50;99.90
4461;DHT22;2243;48.812;9.232;2023-03-01T03:53:59;1.60;99.90
4461;DHT22;2243;48.812;9.232;2023-03-01T03:56:30;1.50;99.90
4461;DHT22;2243;48.812;9.232;2023-03-01T03:59:02;1.40;99.90
4461;DHT22;2243;48.812;9.232;2023-03-01T04:01:32;1.30;99.90
4461;DHT22;2243;48.812;9.232;2023-03-01T04:04:03;1.30;99.90
4461;DHT22;2243;48.812;9.232;2023-03-01T04:06:34;1.30;99.90
4461;DHT22;2243;48.812;9.232;2023-03-01T04:09:05;1.40;99.90
4461;DHT22;2243;48.812;9.232;2023-03-01T04:11:36;1.50;99.90
4461;DHT22;2243;48.812;9.232;2023-03-01T04:14:09;1.50;99.90
4461;DHT22;2243;48.812;9.232;2023-03-01T04:16:40;1.60;99.90
4461;DHT22;2243;48.812;9.232;2023-03-01T04:19:11;1.60;99.90
4461;DHT22;2243;48.812;9.232;2023-03-01T04:21:42;1.60;99.90
4461;DHT22;2243;48.812;9.232;2023-03-01T04:24:13;1.70;99.90
4461;DHT22;2243;48.812;9.232;2023-03-01T04:26:44;1.60;99.90
4461;DHT22;2243;48.812;9.232;2023-03-01T04:29:15;1.60;99.90
4461;DHT22;2243;48.812;9.232;2023-03-01T04:31:47;1.50;99.90
4461;DHT22;2243;48.812;9.232;2023-03-01T04:34:20;1.40;99.90
4461;DHT22;2243;48.812;9.232;2023-03-01T04:36:50;1.20;99.90
4461;DHT22;2243;48.812;9.232;2023-03-01T04:39:22;1.30;99.90
4461;DHT22;2243;48.812;9.232;2023-03-01T04:41:53;1.50;99.90
4461;DHT22;2243;48.812;9.232;2023-03-01T04:44:24;1.60;99.90
4461;DHT22;2243;48.812;9.232;2023-03-01T04:46:54;1.70;99.90
4461;DHT22;2243;48.812;9.232;2023-03-01T04:49:25;1.70;99.90
4461;DHT22;2243;48.812;9.232;2023-03-01T04:51:57;1.70;99.90
4461;DHT22;2243;48.812;9.232;2023-03-01T04:54:35;1.70;99.90
4461;DHT22;2243;48.812;9.232;2023-03-01T04:57:06;1.70;99.90
4461;DHT22;2243;48.812;9.232;2023-03-01T04:59:37;1.80;99.90
4461;DHT22;2243;48.812;9.232;2023-03-01T05:02:08;1.80;99.90
4461;DHT22;2243;48.812;9.232;2023-03-01T05:04:39;1.90;99.90
4461;DHT22;2243;48.812;9.232;2023-03-01T05:07:10;1.90;99.90
4461;DHT22;2243;48.812;9.232;2023-03-01T05:09:43;1.80;99.90
4461;DHT22;2243;48.812;9.232;2023-03-01T05:12:15;1.90;99.90
4461;DHT22;2243;48.812;9.232;2023-03-01T05:14:46;1.90;99.90
4461;DHT22;2243;48.812;9.232;2023-03-01T05:17:17;1.80;99.90
4461;DHT22;2243;48.812;9.232;2023-03-01T05:19:48;1.80;99.90
4461;DHT22;2243;48.812;9.232;2023-03-01T05:22:19;1.80;99.90
4461;DHT22;2243;48.812;9.232;2023-03-01T05:24:50;1.80;99.90
4461;DHT22;2243;48.812;9.232;2023-03-01T05:27:22;1.60;99.90
4461;DHT22;2243;48.812;9.232;2023-03-01T05:29:53;1.50;99.90
4461;DHT22;2243;48.812;9.232;2023-03-01T05:32:24;1.50;99.90
4461;DHT22;2243;48.812;9.232;2023-03-01T05:34:55;1.50;99.90
4461;DHT22;2243;48.812;9.232;2023-03-01T05:37:26;1.50;99.90
4461;DHT22;2243;48.812;9.232;2023-03-01T05:39:59;1.40;99.90
4461;DHT22;2243;48.812;9.232;2023-03-01T05:42:30;1.30;99.90
4461;DHT22;2243;48.812;9.232;2023-03-01T05:45:01;1.40;99.90
4461;DHT22;2243;48.812;9.232;2023-03-01T05:47:32;1.40;99.90
4461;DHT22;2243;48.812;9.232;2023-03-01T05:50:03;1.50;99.90
4461;DHT22;2243;48.812;9.232;2023-03-01T05:52:34;1.40;99.90
4461;DHT22;2243;48.812;9.232;2023-03-01T05:55:05;1.50;99.90
4461;DHT22;2243;48.812;9.232;2023-03-01T05:57:37;1.40;99.90
4461;DHT22;2243;48.812;9.232;2023-03-01T06:00:09;1.60;99.90
4461;DHT22;2243;48.812;9.232;2023-03-01T06:02:41;1.50;99.90
4461;DHT22;2243;48.812;9.232;2023-03-01T06:05:13;1.40;99.90
4461;DHT22;2243;48.812;9.232;2023-03-01T06:07:44;1.40;99.90
4461;DHT22;2243;48.812;9.232;2023-03-01T06:10:17;1.60;99.90
4461;DHT22;2243;48.812;9.232;2023-03-01T06:12:48;1.60;99.90
4461;DHT22;2243;48.812;9.232;2023-03-01T06:15:19;1.50;99.90
4461;DHT22;2243;48.812;9.232;2023-03-01T06:17:51;1.70;99.90
4461;DHT22;2243;48.812;9.232;2023-03-01T06:20:24;1.70;99.90
4461;DHT22;2243;48.812;9.232;2023-03-01T06:22:56;1.60;99.90
4461;DHT22;2243;48.812;9.232;2023-03-01T06:25:28;1.60;99.90
4461;DHT22;2243;48.812;9.232;2023-03-01T06:27:59;1.40;99.90
4461;DHT22;2243;48.812;9.232;2023-03-01T06:30:30;1.40;99.90
4461;DHT22;2243;48.812;9.232;2023-03-01T06:33:02;1.40;99.90
4461;DHT22;2243;48.812;9.232;2023-03-01T06:35:34;1.30;99.90
4461;DHT22;2243;48.812;9.232;2023-03-01T06:38:07;1.30;99.90
4461;DHT22;2243;48.812;9.232;2023-03-01T06:40:38;1.20;99.90
4461;DHT22;2243;48.812;9.232;2023-03-01T06:43:09;1.20;99.90
4461;DHT22;2243;48.812;9.232;2023-03-01T06:45:39;1.30;99.90
4461;DHT22;2243;48.812;9.232;2023-03-01T06:48:10;1.30;99.90
4461;DHT22;2243;48.812;9.232;2023-03-01T06:50:41;1.30;99.90
4461;DHT22;2243;48.812;9.232;2023-03-01T06:53:12;1.40;99.90
4461;DHT22;2243;48.812;9.232;2023-03-01T06:55:43;1.30;99.90
4461;DHT22;2243;48.812;9.232;2023-03-01T06:58:14;1.20;99.90
4461;DHT22;2243;48.812;9.232;2023-03-01T07:00:45;1.20;99.90
4461;DHT22;2243;48.812;9.232;2023-03-01T07:03:16;1.20;99.90
4461;DHT22;2243;48.812;9.232;2023-03-01T07:05:50;1.10;99.90
4461;DHT22;2243;48.812;9.232;2023-03-01T07:08:24;1.00;99.90
4461;DHT22;2243;48.812;9.232;2023-03-01T07:10:58;0.90;99.90
4461;DHT22;2243;48.812;9.232;2023-03-01T07:13:29;1.10;99.90
4461;DHT22;2243;48.812;9.232;2023-03-01T07:16:00;1.00;99.90
4461;DHT22;2243;48.812;9.232;2023-03-01T07:18:32;1.00;99.90
4461;DHT22;2243;48.812;9.232;2023-03-01T07:21:12;1.00;99.90
4461;DHT22;2243;48.812;9.232;2023-03-01T07:23:43;0.80;99.90
4461;DHT22;2243;48.812;9.232;2023-03-01T07:26:14;0.90;99.90
4461;DHT22;2243;48.812;9.232;2023-03-01T07:28:45;0.90;99.90
4461;DHT22;2243;48.812;9.232;2023-03-01T07:31:16;1.00;99.90
4461;DHT22;2243;48.812;9.232;2023-03-01T07:33:47;1.00;99.90
4461;DHT22;2243;48.812;9.232;2023-03-01T07:36:17;0.90;99.90
4461;DHT22;2243;48.812;9.232;2023-03-01T07:38:49;0.80;99.90
4461;DHT22;2243;48.812;9.232;2023-03-01T07:41:20;0.70;99.90
4461;DHT22;2243;48.812;9.232;2023-03-01T07:43:51;0.90;99.90
4461;DHT22;2243;48.812;9.232;2023-03-01T07:46:22;1.00;99.90
4461;DHT22;2243;48.812;9.232;2023-03-01T07:48:53;1.10;99.90
4461;DHT22;2243;48.812;9.232;2023-03-01T07:51:24;1.10;99.90
4461;DHT22;2243;48.812;9.232;2023-03-01T07:53:55;1.10;99.90
4461;DHT22;2243;48.812;9.232;2023-03-01T07:56:26;1.20;99.90
4461;DHT22;2243;48.812;9.232;2023-03-01T07:58:59;1.20;99.90
4461;DHT22;2243;48.812;9.232;2023-03-01T08:01:30;1.20;99.90
4461;DHT22;2243;48.812;9.232;2023-03-01T08:04:01;1.10;99.90
4461;DHT22;2243;48.812;9.232;2023-03-01T08:06:34;1.10;99.90
4461;DHT22;2243;48.812;9.232;2023-03-01T08:09:05;1.30;99.90
4461;DHT22;2243;48.812;9.232;2023-03-01T08:11:37;1.20;99.90
4461;DHT22;2243;48.812;9.232;2023-03-01T08:14:08;1.30;99.90
4461;DHT22;2243;48.812;9.232;2023-03-01T08:16:41;1.30;99.90
4461;DHT22;2243;48.812;9.232;2023-03-01T08:19:12;1.30;99.90
4461;DHT22;2243;48.812;9.232;2023-03-01T08:21:43;1.30;99.90
4461;DHT22;2243;48.812;9.232;2023-03-01T08:24:14;1.40;99.90
4461;DHT22;2243;48.812;9.232;2023-03-01T08:26:45;1.50;99.90
4461;DHT22;2243;48.812;9.232;2023-03-01T08:29:16;1.60;99.90
4461;DHT22;2243;48.812;9.232;2023-03-01T08:31:47;1.70;99.90
4461;DHT22;2243;48.812;9.232;2023-03-01T08:34:19;1.80;99.90
4461;DHT22;2243;48.812;9.232;2023-03-01T08:36:50;1.80;99.90
4461;DHT22;2243;48.812;9.232;2023-03-01T08:39:22;1.80;99.90
4461;DHT22;2243;48.812;9.232;2023-03-01T08:41:53;1.90;99.90
4461;DHT22;2243;48.812;9.232;2023-03-01T08:44:24;2.00;99.90
4461;DHT22;2243;48.812;9.232;2023-03-01T08:46:55;2.10;99.90
4461;DHT22;2243;48.812;9.232;2023-03-01T08:49:26;2.10;99.90
4461;DHT22;2243;48.812;9.232;2023-03-01T08:51:57;2.20;99.90
4461;DHT22;2243;48.812;9.232;2023-03-01T08:54:28;2.30;99.90
4461;DHT22;2243;48.812;9.232;2023-03-01T08:57:01;2.20;99.90
4461;DHT22;2243;48.812;9.232;2023-03-01T08:59:33;2.30;99.90
4461;DHT22;2243;48.812;9.232;2023-03-01T09:02:16;2.40;99.90
4461;DHT22;2243;48.812;9.232;2023-03-01T09:04:48;2.40;99.90
4461;DHT22;2243;48.812;9.232;2023-03-01T09:07:19;2.50;99.90
4461;DHT22;2243;48.812;9.232;2023-03-01T09:09:50;2.60;99.90
4461;DHT22;2243;48.812;9.232;2023-03-01T09:12:23;2.80;99.90
4461;DHT22;2243;48.812;9.232;2023-03-01T09:14:55;2.80;99.90
4461;DHT22;2243;48.812;9.232;2023-03-01T09:17:26;2.90;99.90
4461;DHT22;2243;48.812;9.232;2023-03-01T09:19:57;2.90;99.90
4461;DHT22;2243;48.812;9.232;2023-03-01T09:22:28;2.80;99.90
4461;DHT22;2243;48.812;9.232;2023-03-01T09:24:59;2.80;99.90
4461;DHT22;2243;48.812;9.232;2023-03-01T09:27:31;2.90;99.90
4461;DHT22;2243;48.812;9.232;2023-03-01T09:30:02;3.00;99.90
4461;DHT22;2243;48.812;9.232;2023-03-01T09:32:33;3.20;99.90
4461;DHT22;2243;48.812;9.232;2023-03-01T09:35:04;3.30;99.90
4461;DHT22;2243;48.812;9.232;2023-03-01T09:37:37;3.50;99.90
4461;DHT22;2243;48.812;9.232;2023-03-01T09:40:21;3.50;99.90
4461;DHT22;2243;48.812;9.232;2023-03-01T09:43:06;3.70;99.90
4461;DHT22;2243;48.812;9.232;2023-03-01T09:45:41;3.60;99.90
4461;DHT22;2243;48.812;9.232;2023-03-01T09:48:20;3.70;99.90
4461;DHT22;2243;48.812;9.232;2023-03-01T09:50:54;3.80;99.90
4461;DHT22;2243;48.812;9.232;2023-03-01T09:53:31;3.80;99.90
4461;DHT22;2243;48.812;9.232;2023-03-01T10:02:16;4.10;99.90
4461;DHT22;2243;48.812;9.232;2023-03-01T10:05:04;4.30;99.90
4461;DHT22;2243;48.812;9.232;2023-03-01T10:10:43;4.60;99.90
4461;DHT22;2243;48.812;9.232;2023-03-01T10:16:28;4.90;99.70
4461;DHT22;2243;48.812;9.232;2023-03-01T10:19:17;5.00;99.50
4461;DHT22;2243;48.812;9.232;2023-03-01T10:21:54;5.20;99.50
4461;DHT22;2243;48.812;9.232;2023-03-01T10:24:32;5.30;99.40
4461;DHT22;2243;48.812;9.232;2023-03-01T10:27:17;5.30;98.70
4461;DHT22;2243;48.812;9.232;2023-03-01T10:29:59;5.40;98.90
4461;DHT22;2243;48.812;9.232;2023-03-01T10:32:34;5.50;98.40
4461;DHT22;2243;48.812;9.232;2023-03-01T10:35:26;5.50;98.20
4461;DHT22;2243;48.812;9.232;2023-03-01T10:41:10;5.60;98.00
4461;DHT22;2243;48.812;9.232;2023-03-01T10:43:53;5.70;97.90
4461;DHT22;2243;48.812;9.232;2023-03-01T10:46:35;6.00;97.50
4461;DHT22;2243;48.812;9.232;2023-03-01T10:49:19;6.10;97.10
4461;DHT22;2243;48.812;9.232;2023-03-01T10:51:53;6.10;97.10
4461;DHT22;2243;48.812;9.232;2023-03-01T10:54:29;6.20;97.80
4461;DHT22;2243;48.812;9.232;2023-03-01T10:57:03;6.20;97.20
4461;DHT22;2243;48.812;9.232;2023-03-01T10:59:37;6.50;97.40
4461;DHT22;2243;48.812;9.232;2023-03-01T11:02:28;6.90;95.60
4461;DHT22;2243;48.812;9.232;2023-03-01T11:07:55;7.70;95.00
4461;DHT22;2243;48.812;9.232;2023-03-01T11:10:35;7.70;94.30
4461;DHT22;2243;48.812;9.232;2023-03-01T11:13:17;8.10;93.60
4461;DHT22;2243;48.812;9.232;2023-03-01T11:16:03;8.50;93.50
4461;DHT22;2243;48.812;9.232;2023-03-01T11:18:40;8.80;92.70
4461;DHT22;2243;48.812;9.232;2023-03-01T11:21:18;8.50;92.20
4461;DHT22;2243;48.812;9.232;2023-03-01T11:23:48;8.40;93.00
4461;DHT22;2243;48.812;9.232;2023-03-01T11:26:19;8.70;92.60
4461;DHT22;2243;48.812;9.232;2023-03-01T11:28:56;9.10;92.30
4461;DHT22;2243;48.812;9.232;2023-03-01T11:31:30;9.00;92.10
4461;DHT22;2243;48.812;9.232;2023-03-01T11:34:19;9.00;91.60
4461;DHT22;2243;48.812;9.232;2023-03-01T11:36:59;9.20;91.40
4461;DHT22;2243;48.812;9.232;2023-03-01T11:40:22;9.10;91.70
4461;DHT22;2243;48.812;9.232;2023-03-01T11:43:09;9.20;91.10
4461;DHT22;2243;48.812;9.232;2023-03-01T11:46:31;8.90;91.70
4461;DHT22;2243;48.812;9.232;2023-03-01T11:49:30;9.20;91.40
4461;DHT22;2243;48.812;9.232;2023-03-01T11:55:23;9.20;91.20
4461;DHT22;2243;48.812;9.232;2023-03-01T12:01:23;9.60;90.80
4461;DHT22;2243;48.812;9.232;2023-03-01T12:07:08;9.60;90.10
4461;DHT22;2243;48.812;9.232;2023-03-01T12:10:10;9.80;90.60
4461;DHT22;2243;48.812;9.232;2023-03-01T12:19:16;9.80;89.80
4461;DHT22;2243;48.812;9.232;2023-03-01T12:28:09;10.20;89.50
4461;DHT22;2243;48.812;9.232;2023-03-01T12:48:26;10.80;86.00
4461;DHT22;2243;48.812;9.232;2023-03-01T12:51:07;10.90;86.40
4461;DHT22;2243;48.812;9.232;2023-03-01T12:53:47;10.80;86.10
4461;DHT22;2243;48.812;9.232;2023-03-01T12:56:23;10.90;85.70
4461;DHT22;2243;48.812;9.232;2023-03-01T13:05:05;11.40;84.00
4461;DHT22;2243;48.812;9.232;2023-03-01T13:07:43;11.60;83.30
4461;DHT22;2243;48.812;9.232;2023-03-01T13:10:50;11.60;84.10
4461;DHT22;2243;48.812;9.232;2023-03-01T13:13:26;11.60;83.80
4461;DHT22;2243;48.812;9.232;2023-03-01T13:21:51;12.20;93.80
4461;DHT22;2243;48.812;9.232;2023-03-01T13:27:09;11.90;88.30
4461;DHT22;2243;48.812;9.232;2023-03-01T13:29:54;11.60;92.50
4461;DHT22;2243;48.812;9.232;2023-03-01T13:32:32;11.80;89.00
4461;DHT22;2243;48.812;9.232;2023-03-01T13:37:50;11.60;84.90
4461;DHT22;2243;48.812;9.232;2023-03-01T13:42:54;11.70;86.30
4461;DHT22;2243;48.812;9.232;2023-03-01T13:45:40;11.90;85.40
4461;DHT22;2243;48.812;9.232;2023-03-01T13:48:18;11.60;84.00
4461;DHT22;2243;48.812;9.232;2023-03-01T13:50:58;11.50;83.60
4461;DHT22;2243;48.812;9.232;2023-03-01T13:53:35;11.40;83.80
4461;DHT22;2243;48.812;9.232;2023-03-01T13:56:23;11.50;84.10
4461;DHT22;2243;48.812;9.232;2023-03-01T13:59:02;11.20;84.30
4461;DHT22;2243;48.812;9.232;2023-03-01T14:01:36;11.10;85.10
4461;DHT22;2243;48.812;9.232;2023-03-01T14:04:21;11.20;85.30
4461;DHT22;2243;48.812;9.232;2023-03-01T14:07:21;11.30;85.30
4461;DHT22;2243;48.812;9.232;2023-03-01T14:10:05;11.60;87.20
4461;DHT22;2243;48.812;9.232;2023-03-01T14:15:39;11.10;84.50
4461;DHT22;2243;48.812;9.232;2023-03-01T14:18:19;11.00;85.20
4461;DHT22;2243;48.812;9.232;2023-03-01T14:20:52;10.80;85.30
4461;DHT22;2243;48.812;9.232;2023-03-01T14:23:24;10.90;88.80
4461;DHT22;2243;48.812;9.232;2023-03-01T14:25:56;11.20;86.60
4461;DHT22;2243;48.812;9.232;2023-03-01T14:28:30;11.40;85.80
4461;DHT22;2243;48.812;9.232;2023-03-01T14:34:05;11.20;85.10
4461;DHT22;2243;48.812;9.232;2023-03-01T14:36:36;11.10;84.80
4461;DHT22;2243;48.812;9.232;2023-03-01T14:39:23;11.30;85.60
4461;DHT22;2243;48.812;9.232;2023-03-01T14:41:56;11.30;84.60
4461;DHT22;2243;48.812;9.232;2023-03-01T14:44:47;11.40;84.80
4461;DHT22;2243;48.812;9.232;2023-03-01T14:47:37;11.20;85.90
4461;DHT22;2243;48.812;9.232;2023-03-01T14:50:27;11.10;86.70
4461;DHT22;2243;48.812;9.232;2023-03-01T14:53:03;11.20;86.20
4461;DHT22;2243;48.812;9.232;2023-03-01T14:55:41;11.10;84.20
4461;DHT22;2243;48.812;9.232;2023-03-01T14:58:15;10.70;84.50
4461;DHT22;2243;48.812;9.232;2023-03-01T15:00:58;10.30;85.50
4461;DHT22;2243;48.812;9.232;2023-03-01T15:04:03;10.50;85.40
4461;DHT22;2243;48.812;9.232;2023-03-01T15:06:27;10.40;85.70
4461;DHT22;2243;48.812;9.232;2023-03-01T15:08:59;10.00;86.60
4461;DHT22;2243;48.812;9.232;2023-03-01T15:11:32;10.00;87.10
4461;DHT22;2243;48.812;9.232;2023-03-01T15:14:57;9.90;87.50
4461;DHT22;2243;48.812;9.232;2023-03-01T15:17:33;10.00;87.30
4461;DHT22;2243;48.812;9.232;2023-03-01T15:20:18;9.80;87.60
4461;DHT22;2243;48.812;9.232;2023-03-01T15:22:53;9.70;87.60
4461;DHT22;2243;48.812;9.232;2023-03-01T15:25:27;9.80;87.60
4461;DHT22;2243;48.812;9.232;2023-03-01T15:28:01;9.60;88.10
4461;DHT22;2243;48.812;9.232;2023-03-01T15:30:34;9.40;88.70
4461;DHT22;2243;48.812;9.232;2023-03-01T15:36:01;9.30;88.20
4461;DHT22;2243;48.812;9.232;2023-03-01T15:38:52;9.20;89.10
4461;DHT22;2243;48.812;9.232;2023-03-01T15:41:37;9.00;89.40
4461;DHT22;2243;48.812;9.232;2023-03-01T15:44:23;9.00;89.60
4461;DHT22;2243;48.812;9.232;2023-03-01T15:47:22;8.90;89.50
4461;DHT22;2243;48.812;9.232;2023-03-01T15:49:54;8.70;89.20
4461;DHT22;2243;48.812;9.232;2023-03-01T15:52:35;8.70;89.70
4461;DHT22;2243;48.812;9.232;2023-03-01T15:55:30;8.90;88.90
4461;DHT22;2243;48.812;9.232;2023-03-01T15:58:08;9.00;88.50
4461;DHT22;2243;48.812;9.232;2023-03-01T16:00:41;9.00;88.70
4461;DHT22;2243;48.812;9.232;2023-03-01T16:03:29;9.00;89.00
4461;DHT22;2243;48.812;9.232;2023-03-01T16:06:00;9.00;88.60
4461;DHT22;2243;48.812;9.232;2023-03-01T16:08:31;8.90;88.90
4461;DHT22;2243;48.812;9.232;2023-03-01T16:11:04;8.80;88.60
4461;DHT22;2243;48.812;9.232;2023-03-01T16:13:36;8.80;88.90
4461;DHT22;2243;48.812;9.232;2023-03-01T16:16:10;8.90;88.60
4461;DHT22;2243;48.812;9.232;2023-03-01T16:18:46;9.00;88.80
4461;DHT22;2243;48.812;9.232;2023-03-01T16:21:22;9.00;88.60
4461;DHT22;2243;48.812;9.232;2023-03-01T16:23:54;9.00;88.80
4461;DHT22;2243;48.812;9.232;2023-03-01T16:26:25;9.00;88.70
4461;DHT22;2243;48.812;9.232;2023-03-01T16:28:57;8.90;88.80
4461;DHT22;2243;48.812;9.232;2023-03-01T16:31:28;8.90;89.20
4461;DHT22;2243;48.812;9.232;2023-03-01T16:34:00;8.80;88.60
4461;DHT22;2243;48.812;9.232;2023-03-01T16:36:31;8.90;88.60
4461;DHT22;2243;48.812;9.232;2023-03-01T16:39:02;8.80;89.00
4461;DHT22;2243;48.812;9.232;2023-03-01T16:41:34;8.80;89.10
4461;DHT22;2243;48.812;9.232;2023-03-01T16:44:05;8.70;89.00
4461;DHT22;2243;48.812;9.232;2023-03-01T16:46:36;8.70;89.10
4461;DHT22;2243;48.812;9.232;2023-03-01T16:49:07;8.60;89.30
4461;DHT22;2243;48.812;9.232;2023-03-01T16:51:38;8.60;89.50
4461;DHT22;2243;48.812;9.232;2023-03-01T16:54:09;8.50;89.70
4461;DHT22;2243;48.812;9.232;2023-03-01T16:56:40;8.40;89.70
4461;DHT22;2243;48.812;9.232;2023-03-01T16:59:11;8.30;90.10
4461;DHT22;2243;48.812;9.232;2023-03-01T17:01:42;8.20;90.30
4461;DHT22;2243;48.812;9.232;2023-03-01T17:04:13;8.20;90.30
4461;DHT22;2243;48.812;9.232;2023-03-01T17:06:49;8.20;90.70
4461;DHT22;2243;48.812;9.232;2023-03-01T17:09:20;8.10;90.60
4461;DHT22;2243;48.812;9.232;2023-03-01T17:11:52;8.00;90.90
4461;DHT22;2243;48.812;9.232;2023-03-01T17:14:24;8.00;91.10
4461;DHT22;2243;48.812;9.232;2023-03-01T17:16:55;7.80;91.30
4461;DHT22;2243;48.812;9.232;2023-03-01T17:19:26;7.70;91.40
4461;DHT22;2243;48.812;9.232;2023-03-01T17:21:58;7.60;91.70
4461;DHT22;2243;48.812;9.232;2023-03-01T17:24:37;7.60;91.80
4461;DHT22;2243;48.812;9.232;2023-03-01T17:27:09;7.60;91.80
4461;DHT22;2243;48.812;9.232;2023-03-01T17:29:42;7.50;91.80
4461;DHT22;2243;48.812;9.232;2023-03-01T17:32:13;7.50;91.90
4461;DHT22;2243;48.812;9.232;2023-03-01T17:34:45;7.40;92.10
4461;DHT22;2243;48.812;9.232;2023-03-01T17:37:16;7.30;92.30
4461;DHT22;2243;48.812;9.232;2023-03-01T17:39:47;7.30;92.20
4461;DHT22;2243;48.812;9.232;2023-03-01T17:42:18;7.30;92.20
4461;DHT22;2243;48.812;9.232;2023-03-01T17:44:48;7.20;92.30
4461;DHT22;2243;48.812;9.232;2023-03-01T17:47:20;7.20;92.50
4461;DHT22;2243;48.812;9.232;2023-03-01T17:49:51;7.00;92.70
4461;DHT22;2243;48.812;9.232;2023-03-01T17:52:22;6.80;92.70
4461;DHT22;2243;48.812;9.232;2023-03-01T17:54:53;6.90;93.00
4461;DHT22;2243;48.812;9.232;2023-03-01T17:57:24;6.90;93.20
4461;DHT22;2243;48.812;9.232;2023-03-01T17:59:55;6.80;93.20
4461;DHT22;2243;48.812;9.232;2023-03-01T18:02:26;6.80;93.20
4461;DHT22;2243;48.812;9.232;2023-03-01T18:04:58;6.70;93.30
4461;DHT22;2243;48.812;9.232;2023-03-01T18:07:29;6.70;93.50
4461;DHT22;2243;48.812;9.232;2023-03-01T18:10:03;6.70;93.50
4461;DHT22;2243;48.812;9.232;2023-03-01T18:12:34;6.70;93.60
4461;DHT22;2243;48.812;9.232;2023-03-01T18:15:06;6.60;93.80
4461;DHT22;2243;48.812;9.232;2023-03-01T18:17:38;6.50;94.10
4461;DHT22;2243;48.812;9.232;2023-03-01T18:20:10;6.50;94.20
4461;DHT22;2243;48.812;9.232;2023-03-01T18:22:42;6.40;94.40
4461;DHT22;2243;48.812;9.232;2023-03-01T18:25:14;6.30;94.50
4461;DHT22;2243;48.812;9.232;2023-03-01T18:27:45;6.20;94.60
4461;DHT22;2243;48.812;9.232;2023-03-01T18:30:16;6.10;94.80
4461;DHT22;2243;48.812;9.232;2023-03-01T18:32:47;6.00;95.10
4461;DHT22;2243;48.812;9.232;2023-03-01T18:35:18;5.90;95.30